createdAt,value
2017-10-07T00:02:37.114Z,1015.41
2017-10-07T00:07:32.752Z,1015.43
2017-10-07T00:12:28.701Z,1015.33
2017-10-07T00:17:24.536Z,1015.32
2017-10-07T00:22:20.000Z,1015.35
2017-10-07T00:27:16.164Z,1015.35
2017-10-07T00:32:13.087Z,1015.27
2017-10-07T00:37:08.737Z,1015.23
2017-10-07T00:42:04.622Z,1015.29
2017-10-07T00:47:00.975Z,1015.26
2017-10-07T00:51:56.819Z,1015.13
2017-10-07T00:56:53.600Z,1015.16
2017-10-07T01:01:50.267Z,1015.06
2017-10-07T01:06:45.786Z,1015.02
2017-10-07T01:11:41.585Z,1014.95
2017-10-07T01:16:38.444Z,1014.91
2017-10-07T01:21:35.069Z,1014.85
2017-10-07T01:26:30.609Z,1014.79
2017-10-07T01:31:26.534Z,1014.69
2017-10-07T01:36:22.240Z,1014.67
2017-10-07T01:41:17.989Z,1014.72
2017-10-07T01:46:14.933Z,1014.53
2017-10-07T01:51:10.399Z,1014.46
2017-10-07T01:56:06.042Z,1014.44
2017-10-07T02:01:02.530Z,1014.51
2017-10-07T02:05:58.418Z,1014.50
2017-10-07T02:10:56.529Z,1014.47
2017-10-07T02:15:52.132Z,1014.43
2017-10-07T02:20:48.068Z,1014.42
2017-10-07T02:25:43.863Z,1014.45
2017-10-07T02:30:39.751Z,1014.40
2017-10-07T02:35:35.428Z,1014.55
2017-10-07T02:40:32.414Z,1014.31
2017-10-07T02:45:29.026Z,1014.29
2017-10-07T02:50:24.819Z,1014.20
2017-10-07T02:55:21.184Z,1014.19
2017-10-07T03:00:17.907Z,1014.11
2017-10-07T03:05:14.334Z,1014.08
2017-10-07T03:10:09.955Z,1014.09
2017-10-07T03:15:05.396Z,1014.00
2017-10-07T03:20:01.564Z,1013.96
2017-10-07T03:24:57.354Z,1013.93
2017-10-07T03:29:54.245Z,1013.98
2017-10-07T03:34:50.090Z,1013.96
2017-10-07T03:39:45.636Z,1013.78
2017-10-07T03:44:41.464Z,1013.72
2017-10-07T03:49:37.522Z,1013.66
2017-10-07T03:54:33.161Z,1013.63
2017-10-07T03:59:28.914Z,1013.58
2017-10-07T04:04:24.757Z,1013.53
2017-10-07T04:09:21.452Z,1013.56
2017-10-07T04:14:16.980Z,1013.44
2017-10-07T04:19:12.598Z,1013.51
2017-10-07T04:24:08.736Z,1013.58
2017-10-07T04:29:04.665Z,1013.59
2017-10-07T04:34:00.487Z,1013.64
2017-10-07T04:38:57.281Z,1013.70
2017-10-07T04:43:53.012Z,1013.68
2017-10-07T04:48:49.349Z,1013.62
2017-10-07T04:53:45.084Z,1013.55
2017-10-07T04:58:40.730Z,1013.49
2017-10-07T05:03:36.534Z,1013.53
2017-10-07T05:08:33.180Z,1013.56
2017-10-07T05:13:28.636Z,1013.50
2017-10-07T05:18:24.353Z,1013.37
2017-10-07T05:23:20.157Z,1013.17
2017-10-07T05:28:16.060Z,1013.19
2017-10-07T05:33:12.007Z,1013.10
2017-10-07T05:38:07.721Z,1013.10
2017-10-07T05:43:04.629Z,1012.97
2017-10-07T05:48:01.289Z,1012.89
2017-10-07T05:52:56.946Z,1012.76
2017-10-07T05:57:52.592Z,1012.81
2017-10-07T06:02:48.457Z,1012.75
2017-10-07T06:07:45.732Z,1012.76
2017-10-07T06:12:42.219Z,1012.65
2017-10-07T06:17:37.613Z,1012.58
2017-10-07T06:22:33.345Z,1012.62
2017-10-07T06:27:29.204Z,1012.62
2017-10-07T06:32:26.101Z,1012.64
2017-10-07T06:37:21.726Z,1012.53
2017-10-07T06:42:18.898Z,1012.59
2017-10-07T06:47:14.742Z,1012.47
2017-10-07T06:52:11.791Z,1012.18
2017-10-07T06:57:07.256Z,1012.21
2017-10-07T07:02:03.067Z,1012.14
2017-10-07T07:06:59.310Z,1012.10
2017-10-07T07:11:55.782Z,1012.11
2017-10-07T07:16:51.286Z,1011.94
2017-10-07T07:21:48.197Z,1011.86
2017-10-07T07:26:43.379Z,1011.89
2017-10-07T07:31:39.279Z,1011.78
2017-10-07T07:36:35.037Z,1011.73
2017-10-07T07:41:31.896Z,1011.75
2017-10-07T07:46:28.623Z,1011.68
2017-10-07T07:51:25.340Z,1011.53
2017-10-07T07:56:21.001Z,1011.43
2017-10-07T08:01:17.223Z,1011.52
2017-10-07T08:06:13.168Z,1011.47
2017-10-07T08:11:09.353Z,1011.39
2017-10-07T08:16:05.260Z,1011.33
2017-10-07T08:21:02.269Z,1011.15
2017-10-07T08:25:58.080Z,1011.09
2017-10-07T08:30:54.115Z,1011.05
2017-10-07T08:35:50.267Z,1010.94
2017-10-07T08:40:46.012Z,1010.99
2017-10-07T08:45:42.181Z,1010.87
2017-10-07T08:50:38.059Z,1010.71
2017-10-07T08:55:33.724Z,1010.62
2017-10-07T09:00:30.103Z,1010.50
2017-10-07T09:05:26.279Z,1010.54
2017-10-07T09:10:22.296Z,1010.70
2017-10-07T09:15:17.907Z,1010.62
2017-10-07T09:20:13.993Z,1010.41
2017-10-07T09:25:09.904Z,1010.23
2017-10-07T09:30:06.504Z,1010.08
2017-10-07T09:35:02.505Z,1010.05
2017-10-07T09:39:58.181Z,1009.93
2017-10-07T09:44:54.281Z,1009.80
2017-10-07T09:49:50.991Z,1009.67
2017-10-07T09:54:46.366Z,1009.59
2017-10-07T09:59:44.176Z,1009.59
2017-10-07T10:04:39.522Z,1009.54
2017-10-07T10:09:35.371Z,1009.54
2017-10-07T10:14:30.873Z,1009.42
2017-10-07T10:19:27.617Z,1009.37
2017-10-07T10:24:24.784Z,1009.34
2017-10-07T10:29:20.538Z,1009.27
2017-10-07T10:34:17.957Z,1009.27
2017-10-07T10:39:13.848Z,1009.32
2017-10-07T10:44:10.462Z,1009.20
2017-10-07T10:49:06.444Z,1009.23
2017-10-07T10:54:01.994Z,1009.04
2017-10-07T10:58:57.762Z,1008.98
2017-10-07T11:03:53.390Z,1008.86
2017-10-07T11:08:49.401Z,1008.91
2017-10-07T11:13:45.958Z,1008.81
2017-10-07T11:18:41.342Z,1008.77
2017-10-07T11:23:38.638Z,1008.56
2017-10-07T11:28:33.926Z,1008.49
2017-10-07T11:33:29.766Z,1008.45
2017-10-07T11:38:25.652Z,1008.33
2017-10-07T11:43:20.953Z,1008.17
2017-10-07T11:48:17.242Z,1008.31
2017-10-07T11:53:12.960Z,1008.10
2017-10-07T11:58:08.864Z,1008.02
2017-10-07T12:03:04.677Z,1007.94
2017-10-07T12:08:00.293Z,1007.98
2017-10-07T12:12:57.101Z,1007.93
2017-10-07T12:17:53.354Z,1007.70
2017-10-07T12:22:49.066Z,1007.70
2017-10-07T12:27:45.738Z,1007.50
2017-10-07T12:32:41.281Z,1007.45
2017-10-07T12:37:37.178Z,1007.28
2017-10-07T12:42:34.772Z,1007.19
2017-10-07T12:47:30.416Z,1007.22
2017-10-07T12:52:26.157Z,1007.09
2017-10-07T12:57:22.013Z,1006.94
2017-10-07T13:02:18.353Z,1006.87
2017-10-07T13:07:14.068Z,1006.72
2017-10-07T13:12:09.896Z,1006.77
2017-10-07T13:17:05.547Z,1006.54
2017-10-07T13:22:02.393Z,1006.51
2017-10-07T13:26:57.854Z,1006.52
2017-10-07T13:31:53.889Z,1006.41
2017-10-07T13:36:50.732Z,1006.39
2017-10-07T13:41:46.823Z,1006.24
2017-10-07T13:46:42.811Z,1006.21
2017-10-07T13:51:39.793Z,1006.22
2017-10-07T13:56:35.136Z,1006.08
2017-10-07T14:01:31.085Z,1006.08
2017-10-07T14:06:27.040Z,1005.93
2017-10-07T14:11:24.899Z,1005.90
2017-10-07T14:16:20.118Z,1005.93
2017-10-07T14:21:15.903Z,1005.78
2017-10-07T14:26:12.038Z,1005.78
2017-10-07T14:31:08.686Z,1005.76
2017-10-07T14:36:05.268Z,1005.67
2017-10-07T14:41:00.760Z,1005.60
2017-10-07T14:45:56.886Z,1005.53
2017-10-07T14:50:53.135Z,1005.39
2017-10-07T14:55:48.940Z,1005.32
2017-10-07T15:00:45.937Z,1005.17
2017-10-07T15:05:42.509Z,1005.27
2017-10-07T15:10:38.890Z,1005.23
2017-10-07T15:15:34.830Z,1005.23
2017-10-07T15:20:30.539Z,1005.17
2017-10-07T15:25:26.403Z,1005.13
2017-10-07T15:30:23.000Z,1005.06
2017-10-07T15:35:19.882Z,1005.01
2017-10-07T15:40:15.366Z,1004.91
2017-10-07T15:45:11.795Z,1004.89
2017-10-07T15:50:08.193Z,1005.01
2017-10-07T15:55:03.964Z,1004.81
2017-10-07T15:59:59.587Z,1004.74
2017-10-07T16:04:55.559Z,1004.62
2017-10-07T16:09:51.442Z,1004.63
2017-10-07T16:14:48.406Z,1004.43
2017-10-07T16:19:44.425Z,1004.51
2017-10-07T16:24:40.175Z,1004.54
2017-10-07T16:29:36.126Z,1004.42
2017-10-07T16:34:33.066Z,1004.25
2017-10-07T16:39:28.712Z,1004.16
2017-10-07T16:44:24.507Z,1004.19
2017-10-07T16:49:21.233Z,1004.19
2017-10-07T16:54:16.793Z,1004.10
2017-10-07T16:59:13.556Z,1004.13
2017-10-07T17:04:09.412Z,1004.01
2017-10-07T17:09:05.430Z,1003.89
2017-10-07T17:14:01.549Z,1003.93
2017-10-07T17:18:57.422Z,1003.65
2017-10-07T17:23:53.961Z,1003.66
2017-10-07T17:28:50.178Z,1003.58
2017-10-07T17:33:47.350Z,1003.55
2017-10-07T17:38:42.800Z,1003.64
2017-10-07T17:43:40.942Z,1003.57
2017-10-07T17:48:36.405Z,1003.47
2017-10-07T17:53:32.183Z,1003.50
2017-10-07T17:58:29.402Z,1003.55
2017-10-07T18:03:25.841Z,1003.46
2017-10-07T18:08:21.206Z,1003.66
2017-10-07T18:13:18.734Z,1003.55
2017-10-07T18:18:14.482Z,1003.34
2017-10-07T18:23:10.331Z,1003.42
2017-10-07T18:28:07.607Z,1003.40
2017-10-07T18:33:04.758Z,1003.48
2017-10-07T18:38:00.454Z,1003.33
2017-10-07T18:42:56.175Z,1003.40
2017-10-07T18:47:52.591Z,1003.38
2017-10-07T18:52:49.325Z,1003.42
2017-10-07T18:57:45.221Z,1003.40
2017-10-07T19:02:41.020Z,1003.45
2017-10-07T19:07:36.712Z,1003.30
2017-10-07T19:12:33.529Z,1003.46
2017-10-07T19:17:29.029Z,1003.40
2017-10-07T19:22:24.845Z,1003.29
2017-10-07T19:27:25.400Z,1003.33
2017-10-07T19:32:20.046Z,1003.35
2017-10-07T19:37:15.918Z,1003.33
2017-10-07T19:42:12.823Z,1003.33
2017-10-07T19:47:08.451Z,1003.36
2017-10-07T19:52:05.213Z,1003.29
2017-10-07T19:57:00.921Z,1003.42
2017-10-07T20:01:56.577Z,1003.31
2017-10-07T20:06:52.429Z,1003.25
2017-10-07T20:11:48.614Z,1003.36
2017-10-07T20:16:45.423Z,1003.39
2017-10-07T20:21:42.046Z,1003.33
2017-10-07T20:26:38.227Z,1003.28
2017-10-07T20:31:34.954Z,1003.38
2017-10-07T20:36:30.544Z,1003.19
2017-10-07T20:41:26.389Z,1003.27
2017-10-07T20:46:22.054Z,1003.32
2017-10-07T20:51:18.375Z,1003.34
2017-10-07T20:56:14.081Z,1003.39
2017-10-07T21:01:11.049Z,1003.36
2017-10-07T21:06:06.448Z,1003.36
2017-10-07T21:11:02.481Z,1003.32
2017-10-07T21:15:58.274Z,1003.34
2017-10-07T21:20:55.025Z,1003.48
2017-10-07T21:25:50.492Z,1003.43
2017-10-07T21:30:46.495Z,1003.38
2017-10-07T21:35:42.293Z,1003.37
2017-10-07T21:40:39.125Z,1003.38
2017-10-07T21:45:34.797Z,1003.28
2017-10-07T21:50:30.525Z,1003.29
2017-10-07T21:55:28.639Z,1003.19
2017-10-07T22:00:23.986Z,1003.18
2017-10-07T22:05:19.833Z,1003.11
2017-10-07T22:10:15.661Z,1003.12
2017-10-07T22:15:12.493Z,1003.24
2017-10-07T22:20:09.481Z,1003.16
2017-10-07T22:25:06.067Z,1003.20
2017-10-07T22:30:03.633Z,1003.30
2017-10-07T22:34:59.641Z,1003.29
2017-10-07T22:39:55.258Z,1003.36
2017-10-07T22:44:51.472Z,1003.47
2017-10-07T22:49:48.402Z,1003.37
2017-10-07T22:54:44.077Z,1003.54
2017-10-07T22:59:40.092Z,1003.53
2017-10-07T23:04:36.019Z,1003.61
2017-10-07T23:09:32.039Z,1003.57
2017-10-07T23:14:29.059Z,1003.59
2017-10-07T23:19:24.726Z,1003.64
2017-10-07T23:24:21.566Z,1003.71
2017-10-07T23:29:18.263Z,1003.72
2017-10-07T23:34:13.934Z,1003.68
2017-10-07T23:39:09.815Z,1003.77
2017-10-07T23:44:05.543Z,1003.78
2017-10-07T23:49:01.595Z,1003.74
2017-10-07T23:53:57.769Z,1003.87
2017-10-07T23:58:53.501Z,1003.84
